YGJ weather

Miho Yonago Airport
Yonago, Shimane Prefecture, Japan

Public forecast

Using degrees Celsius for public forecast. Weather courtesy of forecast.io.

METAR (pilot weather report)

Retrieved 2019/05/19 21:00 UTC (53 minutes ago):

RJOH 192100Z 16015G26KT 9999 FEW020 SCT100 BKN220 21/11 Q1007

TAF (pilot weather forecast)

Retrieved 2019/05/19 18:00 UTC (4 hours ago):

TAF RJOH 191711Z 1918/2100 17017KT 9999 FEW015 SCT030 TEMPO 1918/1921 17020G30KT BECMG 2009/2012 26012KT TEMPO 2009/2015 4000 SHRA BR